sensor_id;sensor_type;location;lat;lon;timestamp;temperature;humidity
14140;DHT22;7150;53.514;9.988;2023-07-16T00:01:25;23.70;99.90
14140;DHT22;7150;53.514;9.988;2023-07-16T00:03:50;23.70;99.90
14140;DHT22;7150;53.514;9.988;2023-07-16T00:06:16;23.60;99.90
14140;DHT22;7150;53.514;9.988;2023-07-16T00:08:41;23.50;99.90
14140;DHT22;7150;53.514;9.988;2023-07-16T00:11:07;23.40;99.90
14140;DHT22;7150;53.514;9.988;2023-07-16T00:13:32;23.40;99.90
14140;DHT22;7150;53.514;9.988;2023-07-16T00:15:58;23.40;99.90
14140;DHT22;7150;53.514;9.988;2023-07-16T00:18:23;23.50;99.90
14140;DHT22;7150;53.514;9.988;2023-07-16T00:20:49;23.50;99.90
14140;DHT22;7150;53.514;9.988;2023-07-16T00:23:14;23.50;99.90
14140;DHT22;7150;53.514;9.988;2023-07-16T00:25:40;23.60;99.90
14140;DHT22;7150;53.514;9.988;2023-07-16T00:28:05;23.50;99.90
14140;DHT22;7150;53.514;9.988;2023-07-16T00:30:31;23.50;99.90
14140;DHT22;7150;53.514;9.988;2023-07-16T00:32:56;23.50;99.90
14140;DHT22;7150;53.514;9.988;2023-07-16T00:35:22;23.40;99.90
14140;DHT22;7150;53.514;9.988;2023-07-16T00:37:47;23.40;99.90
14140;DHT22;7150;53.514;9.988;2023-07-16T00:40:13;23.40;99.90
14140;DHT22;7150;53.514;9.988;2023-07-16T00:42:38;23.40;99.90
14140;DHT22;7150;53.514;9.988;2023-07-16T00:45:09;23.40;99.90
14140;DHT22;7150;53.514;9.988;2023-07-16T00:47:36;23.40;99.90
14140;DHT22;7150;53.514;9.988;2023-07-16T00:50:02;23.40;99.90
14140;DHT22;7150;53.514;9.988;2023-07-16T00:52:27;23.40;99.90
14140;DHT22;7150;53.514;9.988;2023-07-16T00:54:53;23.30;99.90
14140;DHT22;7150;53.514;9.988;2023-07-16T00:57:19;23.30;99.90
14140;DHT22;7150;53.514;9.988;2023-07-16T00:59:44;23.30;99.90
14140;DHT22;7150;53.514;9.988;2023-07-16T01:02:10;23.30;99.90
14140;DHT22;7150;53.514;9.988;2023-07-16T01:04:36;23.30;99.90
14140;DHT22;7150;53.514;9.988;2023-07-16T01:07:04;23.30;99.90
14140;DHT22;7150;53.514;9.988;2023-07-16T01:09:32;23.30;99.90
14140;DHT22;7150;53.514;9.988;2023-07-16T01:12:00;23.30;99.90
14140;DHT22;7150;53.514;9.988;2023-07-16T01:14:25;23.30;99.90
14140;DHT22;7150;53.514;9.988;2023-07-16T01:16:52;23.20;99.90
14140;DHT22;7150;53.514;9.988;2023-07-16T01:19:24;23.20;99.90
14140;DHT22;7150;53.514;9.988;2023-07-16T01:22:10;23.30;99.90
14140;DHT22;7150;53.514;9.988;2023-07-16T01:29:58;23.10;99.90
14140;DHT22;7150;53.514;9.988;2023-07-16T01:32:26;23.20;99.90
14140;DHT22;7150;53.514;9.988;2023-07-16T01:34:53;23.10;99.90
14140;DHT22;7150;53.514;9.988;2023-07-16T01:37:19;23.10;99.90
14140;DHT22;7150;53.514;9.988;2023-07-16T01:39:44;23.10;99.90
14140;DHT22;7150;53.514;9.988;2023-07-16T01:42:10;23.10;99.90
14140;DHT22;7150;53.514;9.988;2023-07-16T01:44:36;23.10;99.90
14140;DHT22;7150;53.514;9.988;2023-07-16T01:49:33;23.10;99.90
14140;DHT22;7150;53.514;9.988;2023-07-16T01:52:01;23.10;99.90
14140;DHT22;7150;53.514;9.988;2023-07-16T01:54:26;23.10;99.90
14140;DHT22;7150;53.514;9.988;2023-07-16T01:56:52;23.10;99.90
14140;DHT22;7150;53.514;9.988;2023-07-16T01:59:17;23.10;99.90
14140;DHT22;7150;53.514;9.988;2023-07-16T02:01:43;23.10;99.90
14140;DHT22;7150;53.514;9.988;2023-07-16T02:04:08;23.10;99.90
14140;DHT22;7150;53.514;9.988;2023-07-16T02:06:34;23.10;99.90
14140;DHT22;7150;53.514;9.988;2023-07-16T02:08:59;23.10;99.90
14140;DHT22;7150;53.514;9.988;2023-07-16T02:11:25;23.10;99.90
14140;DHT22;7150;53.514;9.988;2023-07-16T02:13:50;23.10;99.80
14140;DHT22;7150;53.514;9.988;2023-07-16T02:16:16;23.10;99.90
14140;DHT22;7150;53.514;9.988;2023-07-16T02:18:41;23.10;99.90
14140;DHT22;7150;53.514;9.988;2023-07-16T02:21:06;23.10;99.90
14140;DHT22;7150;53.514;9.988;2023-07-16T02:23:32;23.10;99.80
14140;DHT22;7150;53.514;9.988;2023-07-16T02:25:57;23.10;99.60
14140;DHT22;7150;53.514;9.988;2023-07-16T02:28:23;23.10;99.60
14140;DHT22;7150;53.514;9.988;2023-07-16T02:30:49;23.00;99.70
14140;DHT22;7150;53.514;9.988;2023-07-16T02:33:16;23.00;99.70
14140;DHT22;7150;53.514;9.988;2023-07-16T02:35:46;23.00;99.70
14140;DHT22;7150;53.514;9.988;2023-07-16T02:38:12;23.00;99.80
14140;DHT22;7150;53.514;9.988;2023-07-16T02:40:43;23.00;99.50
14140;DHT22;7150;53.514;9.988;2023-07-16T02:43:09;23.00;99.60
14140;DHT22;7150;53.514;9.988;2023-07-16T02:45:34;23.00;99.60
14140;DHT22;7150;53.514;9.988;2023-07-16T02:48:00;22.90;99.90
14140;DHT22;7150;53.514;9.988;2023-07-16T02:50:25;22.90;99.60
14140;DHT22;7150;53.514;9.988;2023-07-16T02:52:51;23.00;99.70
14140;DHT22;7150;53.514;9.988;2023-07-16T02:55:16;22.90;99.80
14140;DHT22;7150;53.514;9.988;2023-07-16T02:57:42;23.00;99.40
14140;DHT22;7150;53.514;9.988;2023-07-16T03:00:08;22.90;99.30
14140;DHT22;7150;53.514;9.988;2023-07-16T03:02:33;23.00;99.40
14140;DHT22;7150;53.514;9.988;2023-07-16T03:04:59;23.00;99.50
14140;DHT22;7150;53.514;9.988;2023-07-16T03:07:24;23.00;99.60
14140;DHT22;7150;53.514;9.988;2023-07-16T03:09:50;23.00;99.60
14140;DHT22;7150;53.514;9.988;2023-07-16T03:12:15;23.00;99.40
14140;DHT22;7150;53.514;9.988;2023-07-16T03:14:40;22.90;99.20
14140;DHT22;7150;53.514;9.988;2023-07-16T03:17:06;23.00;99.50
14140;DHT22;7150;53.514;9.988;2023-07-16T03:19:32;23.00;99.30
14140;DHT22;7150;53.514;9.988;2023-07-16T03:21:58;22.90;99.10
14140;DHT22;7150;53.514;9.988;2023-07-16T03:24:23;22.90;99.10
14140;DHT22;7150;53.514;9.988;2023-07-16T03:26:48;22.90;99.30
14140;DHT22;7150;53.514;9.988;2023-07-16T03:29:14;22.90;99.30
14140;DHT22;7150;53.514;9.988;2023-07-16T03:31:39;22.90;99.20
14140;DHT22;7150;53.514;9.988;2023-07-16T03:34:05;22.90;99.30
14140;DHT22;7150;53.514;9.988;2023-07-16T03:36:30;23.00;99.20
14140;DHT22;7150;53.514;9.988;2023-07-16T03:38:56;22.90;99.00
14140;DHT22;7150;53.514;9.988;2023-07-16T03:41:21;22.90;99.10
14140;DHT22;7150;53.514;9.988;2023-07-16T03:43:47;22.90;98.60
14140;DHT22;7150;53.514;9.988;2023-07-16T03:46:12;22.90;98.70
14140;DHT22;7150;53.514;9.988;2023-07-16T03:48:38;22.90;98.40
14140;DHT22;7150;53.514;9.988;2023-07-16T03:51:03;22.90;98.20
14140;DHT22;7150;53.514;9.988;2023-07-16T03:53:29;22.80;98.10
14140;DHT22;7150;53.514;9.988;2023-07-16T03:55:54;22.80;98.40
14140;DHT22;7150;53.514;9.988;2023-07-16T03:58:20;22.80;98.80
14140;DHT22;7150;53.514;9.988;2023-07-16T04:00:45;22.80;99.20
14140;DHT22;7150;53.514;9.988;2023-07-16T04:03:11;22.80;99.20
14140;DHT22;7150;53.514;9.988;2023-07-16T04:05:36;22.80;99.30
14140;DHT22;7150;53.514;9.988;2023-07-16T04:08:02;22.80;99.50
14140;DHT22;7150;53.514;9.988;2023-07-16T04:10:27;22.80;99.70
14140;DHT22;7150;53.514;9.988;2023-07-16T04:12:53;22.80;99.90
14140;DHT22;7150;53.514;9.988;2023-07-16T04:15:18;22.80;99.90
14140;DHT22;7150;53.514;9.988;2023-07-16T04:17:44;22.80;99.90
14140;DHT22;7150;53.514;9.988;2023-07-16T04:20:09;22.80;99.90
14140;DHT22;7150;53.514;9.988;2023-07-16T04:22:35;22.80;99.90
14140;DHT22;7150;53.514;9.988;2023-07-16T04:25:01;22.80;99.90
14140;DHT22;7150;53.514;9.988;2023-07-16T04:27:27;22.70;99.90
14140;DHT22;7150;53.514;9.988;2023-07-16T04:29:52;22.80;99.90
14140;DHT22;7150;53.514;9.988;2023-07-16T04:32:19;22.80;99.90
14140;DHT22;7150;53.514;9.988;2023-07-16T04:34:44;22.70;99.90
14140;DHT22;7150;53.514;9.988;2023-07-16T04:37:10;22.70;99.90
14140;DHT22;7150;53.514;9.988;2023-07-16T04:39:35;22.70;99.90
14140;DHT22;7150;53.514;9.988;2023-07-16T04:42:01;22.70;99.90
14140;DHT22;7150;53.514;9.988;2023-07-16T04:44:26;22.70;99.90
14140;DHT22;7150;53.514;9.988;2023-07-16T04:46:51;22.80;99.90
14140;DHT22;7150;53.514;9.988;2023-07-16T04:49:17;22.80;99.90
14140;DHT22;7150;53.514;9.988;2023-07-16T04:51:42;22.80;99.90
14140;DHT22;7150;53.514;9.988;2023-07-16T04:54:08;22.80;99.90
14140;DHT22;7150;53.514;9.988;2023-07-16T04:56:33;22.80;99.90
14140;DHT22;7150;53.514;9.988;2023-07-16T04:58:59;22.80;99.90
14140;DHT22;7150;53.514;9.988;2023-07-16T05:01:24;22.80;99.90
14140;DHT22;7150;53.514;9.988;2023-07-16T05:03:52;22.90;99.90
14140;DHT22;7150;53.514;9.988;2023-07-16T05:06:17;22.90;99.90
14140;DHT22;7150;53.514;9.988;2023-07-16T05:08:43;22.90;99.90
14140;DHT22;7150;53.514;9.988;2023-07-16T05:11:08;22.90;99.90
14140;DHT22;7150;53.514;9.988;2023-07-16T05:13:34;22.90;99.90
14140;DHT22;7150;53.514;9.988;2023-07-16T05:15:59;22.90;99.90
14140;DHT22;7150;53.514;9.988;2023-07-16T05:18:25;22.90;99.90
14140;DHT22;7150;53.514;9.988;2023-07-16T05:20:50;22.90;99.90
14140;DHT22;7150;53.514;9.988;2023-07-16T05:23:16;22.90;99.90
14140;DHT22;7150;53.514;9.988;2023-07-16T05:25:48;22.90;99.90
14140;DHT22;7150;53.514;9.988;2023-07-16T05:28:15;22.90;99.90
14140;DHT22;7150;53.514;9.988;2023-07-16T05:30:41;22.90;99.90
14140;DHT22;7150;53.514;9.988;2023-07-16T05:33:06;22.90;99.90
14140;DHT22;7150;53.514;9.988;2023-07-16T05:35:31;22.90;99.90
14140;DHT22;7150;53.514;9.988;2023-07-16T05:37:57;22.90;99.90
14140;DHT22;7150;53.514;9.988;2023-07-16T05:40:22;22.90;99.90
14140;DHT22;7150;53.514;9.988;2023-07-16T05:42:48;23.00;99.90
14140;DHT22;7150;53.514;9.988;2023-07-16T05:45:13;23.00;99.90
14140;DHT22;7150;53.514;9.988;2023-07-16T05:47:39;22.90;99.40
14140;DHT22;7150;53.514;9.988;2023-07-16T05:50:05;22.90;99.50
14140;DHT22;7150;53.514;9.988;2023-07-16T05:52:30;22.90;99.20
14140;DHT22;7150;53.514;9.988;2023-07-16T05:54:57;22.90;98.80
14140;DHT22;7150;53.514;9.988;2023-07-16T05:57:22;23.00;98.50
14140;DHT22;7150;53.514;9.988;2023-07-16T05:59:48;23.00;98.20
14140;DHT22;7150;53.514;9.988;2023-07-16T06:02:13;22.90;98.00
14140;DHT22;7150;53.514;9.988;2023-07-16T06:04:39;22.90;98.30
14140;DHT22;7150;53.514;9.988;2023-07-16T06:07:04;22.90;97.80
14140;DHT22;7150;53.514;9.988;2023-07-16T06:09:30;22.90;97.70
14140;DHT22;7150;53.514;9.988;2023-07-16T06:11:56;23.00;97.80
14140;DHT22;7150;53.514;9.988;2023-07-16T06:14:21;23.00;97.40
14140;DHT22;7150;53.514;9.988;2023-07-16T06:16:47;23.00;97.00
14140;DHT22;7150;53.514;9.988;2023-07-16T06:19:12;23.00;96.80
14140;DHT22;7150;53.514;9.988;2023-07-16T06:21:37;23.00;96.80
14140;DHT22;7150;53.514;9.988;2023-07-16T06:24:03;22.90;96.30
14140;DHT22;7150;53.514;9.988;2023-07-16T06:26:29;22.90;96.10
14140;DHT22;7150;53.514;9.988;2023-07-16T06:28:54;22.80;96.40
14140;DHT22;7150;53.514;9.988;2023-07-16T06:31:20;22.90;96.50
14140;DHT22;7150;53.514;9.988;2023-07-16T06:33:45;22.90;96.20
14140;DHT22;7150;53.514;9.988;2023-07-16T06:36:12;22.90;96.30
14140;DHT22;7150;53.514;9.988;2023-07-16T06:38:38;22.80;96.00
14140;DHT22;7150;53.514;9.988;2023-07-16T06:41:03;22.80;96.60
14140;DHT22;7150;53.514;9.988;2023-07-16T06:43:29;22.90;96.90
14140;DHT22;7150;53.514;9.988;2023-07-16T06:45:54;23.00;96.90
14140;DHT22;7150;53.514;9.988;2023-07-16T06:48:20;23.00;96.60
14140;DHT22;7150;53.514;9.988;2023-07-16T06:50:45;23.00;96.40
14140;DHT22;7150;53.514;9.988;2023-07-16T06:53:11;23.10;96.00
14140;DHT22;7150;53.514;9.988;2023-07-16T06:55:37;23.10;95.70
14140;DHT22;7150;53.514;9.988;2023-07-16T06:58:02;23.10;96.00
14140;DHT22;7150;53.514;9.988;2023-07-16T07:00:28;23.10;95.50
14140;DHT22;7150;53.514;9.988;2023-07-16T07:02:54;23.10;95.80
14140;DHT22;7150;53.514;9.988;2023-07-16T07:05:20;23.10;95.70
14140;DHT22;7150;53.514;9.988;2023-07-16T07:07:45;23.10;95.90
14140;DHT22;7150;53.514;9.988;2023-07-16T07:10:12;23.10;95.90
14140;DHT22;7150;53.514;9.988;2023-07-16T07:12:38;23.20;95.20
14140;DHT22;7150;53.514;9.988;2023-07-16T07:15:06;23.10;95.60
14140;DHT22;7150;53.514;9.988;2023-07-16T07:17:32;23.20;95.80
14140;DHT22;7150;53.514;9.988;2023-07-16T07:19:57;23.20;94.80
14140;DHT22;7150;53.514;9.988;2023-07-16T07:22:23;23.20;94.30
14140;DHT22;7150;53.514;9.988;2023-07-16T07:24:48;23.10;94.50
14140;DHT22;7150;53.514;9.988;2023-07-16T07:27:14;23.10;94.40
14140;DHT22;7150;53.514;9.988;2023-07-16T07:29:40;23.10;94.70
14140;DHT22;7150;53.514;9.988;2023-07-16T07:32:06;23.10;94.70
14140;DHT22;7150;53.514;9.988;2023-07-16T07:34:31;23.10;94.70
14140;DHT22;7150;53.514;9.988;2023-07-16T07:36:57;23.20;95.30
14140;DHT22;7150;53.514;9.988;2023-07-16T07:39:22;23.30;95.60
14140;DHT22;7150;53.514;9.988;2023-07-16T07:41:48;23.30;95.80
14140;DHT22;7150;53.514;9.988;2023-07-16T07:44:13;23.40;95.60
14140;DHT22;7150;53.514;9.988;2023-07-16T07:46:39;23.40;95.80
14140;DHT22;7150;53.514;9.988;2023-07-16T07:49:04;23.40;95.70
14140;DHT22;7150;53.514;9.988;2023-07-16T07:51:30;23.40;95.10
14140;DHT22;7150;53.514;9.988;2023-07-16T07:53:55;23.40;95.50
14140;DHT22;7150;53.514;9.988;2023-07-16T07:56:21;23.40;95.60
14140;DHT22;7150;53.514;9.988;2023-07-16T07:58:46;23.40;95.40
14140;DHT22;7150;53.514;9.988;2023-07-16T08:01:12;23.40;95.00
14140;DHT22;7150;53.514;9.988;2023-07-16T08:03:37;23.40;94.70
14140;DHT22;7150;53.514;9.988;2023-07-16T08:06:03;23.40;95.20
14140;DHT22;7150;53.514;9.988;2023-07-16T08:08:28;23.40;95.10
14140;DHT22;7150;53.514;9.988;2023-07-16T08:10:55;23.40;94.90
14140;DHT22;7150;53.514;9.988;2023-07-16T08:13:20;23.50;94.20
14140;DHT22;7150;53.514;9.988;2023-07-16T08:15:46;23.50;94.90
14140;DHT22;7150;53.514;9.988;2023-07-16T08:18:13;23.50;94.00
14140;DHT22;7150;53.514;9.988;2023-07-16T08:20:38;23.50;93.60
14140;DHT22;7150;53.514;9.988;2023-07-16T08:23:04;23.50;94.00
14140;DHT22;7150;53.514;9.988;2023-07-16T08:25:29;23.60;94.20
14140;DHT22;7150;53.514;9.988;2023-07-16T08:27:55;23.60;94.40
14140;DHT22;7150;53.514;9.988;2023-07-16T08:30:20;23.60;94.00
14140;DHT22;7150;53.514;9.988;2023-07-16T08:32:46;23.60;94.30
14140;DHT22;7150;53.514;9.988;2023-07-16T08:35:12;23.70;94.20
14140;DHT22;7150;53.514;9.988;2023-07-16T08:37:42;23.70;93.80
14140;DHT22;7150;53.514;9.988;2023-07-16T08:40:08;23.70;93.20
14140;DHT22;7150;53.514;9.988;2023-07-16T08:42:39;23.60;93.30
14140;DHT22;7150;53.514;9.988;2023-07-16T08:45:10;23.60;92.70
14140;DHT22;7150;53.514;9.988;2023-07-16T08:47:36;23.60;93.00
14140;DHT22;7150;53.514;9.988;2023-07-16T08:50:02;23.50;93.30
14140;DHT22;7150;53.514;9.988;2023-07-16T08:52:29;23.60;93.40
14140;DHT22;7150;53.514;9.988;2023-07-16T08:54:55;23.60;93.50
14140;DHT22;7150;53.514;9.988;2023-07-16T08:57:21;23.60;92.60
14140;DHT22;7150;53.514;9.988;2023-07-16T08:59:50;23.60;92.10
14140;DHT22;7150;53.514;9.988;2023-07-16T09:02:20;23.70;91.70
14140;DHT22;7150;53.514;9.988;2023-07-16T09:04:49;23.70;91.30
14140;DHT22;7150;53.514;9.988;2023-07-16T09:07:16;23.80;89.80
14140;DHT22;7150;53.514;9.988;2023-07-16T09:09:42;23.70;90.10
14140;DHT22;7150;53.514;9.988;2023-07-16T09:12:12;23.80;89.80
14140;DHT22;7150;53.514;9.988;2023-07-16T09:14:37;23.70;88.40
14140;DHT22;7150;53.514;9.988;2023-07-16T09:17:03;23.70;89.20
14140;DHT22;7150;53.514;9.988;2023-07-16T09:19:32;23.70;90.00
14140;DHT22;7150;53.514;9.988;2023-07-16T09:21:57;23.70;89.10
14140;DHT22;7150;53.514;9.988;2023-07-16T09:24:23;23.70;88.90
14140;DHT22;7150;53.514;9.988;2023-07-16T09:26:53;23.70;89.40
14140;DHT22;7150;53.514;9.988;2023-07-16T09:29:19;23.70;89.90
14140;DHT22;7150;53.514;9.988;2023-07-16T09:34:21;23.80;89.70
14140;DHT22;7150;53.514;9.988;2023-07-16T09:36:49;23.80;90.00
14140;DHT22;7150;53.514;9.988;2023-07-16T09:39:19;23.90;90.20
14140;DHT22;7150;53.514;9.988;2023-07-16T09:41:47;24.00;90.20
14140;DHT22;7150;53.514;9.988;2023-07-16T09:44:13;24.00;89.50
14140;DHT22;7150;53.514;9.988;2023-07-16T09:46:39;24.10;88.70
14140;DHT22;7150;53.514;9.988;2023-07-16T09:49:05;24.10;89.10
14140;DHT22;7150;53.514;9.988;2023-07-16T09:51:31;24.10;88.50
14140;DHT22;7150;53.514;9.988;2023-07-16T09:54:00;24.10;87.60
14140;DHT22;7150;53.514;9.988;2023-07-16T09:56:33;24.10;88.20
14140;DHT22;7150;53.514;9.988;2023-07-16T09:58:59;24.20;88.80
14140;DHT22;7150;53.514;9.988;2023-07-16T10:01:26;24.10;87.60
14140;DHT22;7150;53.514;9.988;2023-07-16T10:03:52;24.10;87.20
14140;DHT22;7150;53.514;9.988;2023-07-16T10:06:17;24.10;86.70
14140;DHT22;7150;53.514;9.988;2023-07-16T10:08:49;24.00;86.30
14140;DHT22;7150;53.514;9.988;2023-07-16T10:11:18;24.00;86.30
14140;DHT22;7150;53.514;9.988;2023-07-16T10:13:50;23.90;86.30
14140;DHT22;7150;53.514;9.988;2023-07-16T10:16:22;23.80;86.40
14140;DHT22;7150;53.514;9.988;2023-07-16T10:18:52;23.80;88.30
14140;DHT22;7150;53.514;9.988;2023-07-16T10:21:23;23.80;87.90
14140;DHT22;7150;53.514;9.988;2023-07-16T10:23:57;23.90;88.40
14140;DHT22;7150;53.514;9.988;2023-07-16T10:26:26;24.00;86.30
14140;DHT22;7150;53.514;9.988;2023-07-16T10:28:53;23.80;85.00
14140;DHT22;7150;53.514;9.988;2023-07-16T10:31:28;23.80;86.00
14140;DHT22;7150;53.514;9.988;2023-07-16T10:34:04;23.90;86.00
14140;DHT22;7150;53.514;9.988;2023-07-16T10:36:30;23.90;84.70
14140;DHT22;7150;53.514;9.988;2023-07-16T10:39:03;23.90;85.10
14140;DHT22;7150;53.514;9.988;2023-07-16T10:41:29;23.90;85.60
14140;DHT22;7150;53.514;9.988;2023-07-16T10:43:56;23.90;85.00
14140;DHT22;7150;53.514;9.988;2023-07-16T10:46:22;24.00;84.80
14140;DHT22;7150;53.514;9.988;2023-07-16T10:48:47;23.80;84.00
14140;DHT22;7150;53.514;9.988;2023-07-16T10:51:16;23.70;84.20
14140;DHT22;7150;53.514;9.988;2023-07-16T10:53:43;23.80;85.50
14140;DHT22;7150;53.514;9.988;2023-07-16T10:56:08;23.80;85.00
14140;DHT22;7150;53.514;9.988;2023-07-16T10:58:36;23.90;86.00
14140;DHT22;7150;53.514;9.988;2023-07-16T11:01:02;23.90;86.10
14140;DHT22;7150;53.514;9.988;2023-07-16T11:03:28;24.00;85.60
14140;DHT22;7150;53.514;9.988;2023-07-16T11:05:53;24.00;84.80
14140;DHT22;7150;53.514;9.988;2023-07-16T11:08:25;23.90;84.20
14140;DHT22;7150;53.514;9.988;2023-07-16T11:10:57;24.00;86.00
14140;DHT22;7150;53.514;9.988;2023-07-16T11:13:35;24.20;86.60
14140;DHT22;7150;53.514;9.988;2023-07-16T11:16:08;24.20;86.70
14140;DHT22;7150;53.514;9.988;2023-07-16T11:18:34;24.30;85.30
14140;DHT22;7150;53.514;9.988;2023-07-16T11:20:59;24.30;87.00
14140;DHT22;7150;53.514;9.988;2023-07-16T11:23:25;24.30;84.40
14140;DHT22;7150;53.514;9.988;2023-07-16T11:25:52;24.10;84.20
14140;DHT22;7150;53.514;9.988;2023-07-16T11:28:17;24.10;84.90
14140;DHT22;7150;53.514;9.988;2023-07-16T11:30:43;24.00;82.60
14140;DHT22;7150;53.514;9.988;2023-07-16T11:33:12;23.90;84.30
14140;DHT22;7150;53.514;9.988;2023-07-16T11:35:38;23.90;82.50
14140;DHT22;7150;53.514;9.988;2023-07-16T11:38:05;23.90;85.50
14140;DHT22;7150;53.514;9.988;2023-07-16T11:40:33;24.00;85.60
14140;DHT22;7150;53.514;9.988;2023-07-16T11:43:10;24.10;88.30
14140;DHT22;7150;53.514;9.988;2023-07-16T11:45:35;24.20;86.10
14140;DHT22;7150;53.514;9.988;2023-07-16T11:48:01;24.20;84.00
14140;DHT22;7150;53.514;9.988;2023-07-16T11:50:28;24.40;86.00
14140;DHT22;7150;53.514;9.988;2023-07-16T11:52:56;24.40;85.30
14140;DHT22;7150;53.514;9.988;2023-07-16T11:55:22;24.40;85.40
14140;DHT22;7150;53.514;9.988;2023-07-16T11:57:48;24.40;86.40
14140;DHT22;7150;53.514;9.988;2023-07-16T12:00:14;24.40;85.80
14140;DHT22;7150;53.514;9.988;2023-07-16T12:02:39;24.50;84.60
14140;DHT22;7150;53.514;9.988;2023-07-16T12:05:05;24.50;84.80
14140;DHT22;7150;53.514;9.988;2023-07-16T12:07:35;24.50;82.90
14140;DHT22;7150;53.514;9.988;2023-07-16T12:10:02;24.50;85.50
14140;DHT22;7150;53.514;9.988;2023-07-16T12:12:29;24.50;84.30
14140;DHT22;7150;53.514;9.988;2023-07-16T12:14:54;24.40;82.60
14140;DHT22;7150;53.514;9.988;2023-07-16T12:17:20;24.70;85.10
14140;DHT22;7150;53.514;9.988;2023-07-16T12:19:45;25.50;81.60
14140;DHT22;7150;53.514;9.988;2023-07-16T12:22:11;25.70;82.50
14140;DHT22;7150;53.514;9.988;2023-07-16T12:24:37;25.70;83.50
14140;DHT22;7150;53.514;9.988;2023-07-16T12:27:02;25.60;79.90
14140;DHT22;7150;53.514;9.988;2023-07-16T12:29:28;25.30;83.80
14140;DHT22;7150;53.514;9.988;2023-07-16T12:31:53;25.10;82.80
14140;DHT22;7150;53.514;9.988;2023-07-16T12:34:19;25.00;82.20
14140;DHT22;7150;53.514;9.988;2023-07-16T12:36:44;24.90;82.20
14140;DHT22;7150;53.514;9.988;2023-07-16T12:39:10;24.90;81.70
14140;DHT22;7150;53.514;9.988;2023-07-16T12:41:36;24.80;81.80
14140;DHT22;7150;53.514;9.988;2023-07-16T12:44:01;24.80;81.10
14140;DHT22;7150;53.514;9.988;2023-07-16T12:46:27;24.80;84.60
14140;DHT22;7150;53.514;9.988;2023-07-16T12:48:52;24.70;83.60
14140;DHT22;7150;53.514;9.988;2023-07-16T12:51:18;24.80;82.80
14140;DHT22;7150;53.514;9.988;2023-07-16T12:53:43;24.80;84.40
14140;DHT22;7150;53.514;9.988;2023-07-16T12:56:09;24.90;83.80
14140;DHT22;7150;53.514;9.988;2023-07-16T12:58:35;24.90;82.60
14140;DHT22;7150;53.514;9.988;2023-07-16T13:01:01;24.90;82.90
14140;DHT22;7150;53.514;9.988;2023-07-16T13:03:26;25.00;81.70
14140;DHT22;7150;53.514;9.988;2023-07-16T13:05:52;24.90;79.60
14140;DHT22;7150;53.514;9.988;2023-07-16T13:08:17;24.70;81.60
14140;DHT22;7150;53.514;9.988;2023-07-16T13:10:43;24.80;81.30
14140;DHT22;7150;53.514;9.988;2023-07-16T13:13:08;24.70;83.00
14140;DHT22;7150;53.514;9.988;2023-07-16T13:15:34;24.80;84.00
14140;DHT22;7150;53.514;9.988;2023-07-16T13:17:59;24.90;84.60
14140;DHT22;7150;53.514;9.988;2023-07-16T13:20:25;25.00;84.80
14140;DHT22;7150;53.514;9.988;2023-07-16T13:22:50;25.00;81.90
14140;DHT22;7150;53.514;9.988;2023-07-16T13:25:16;24.90;84.20
14140;DHT22;7150;53.514;9.988;2023-07-16T13:27:41;25.00;83.50
14140;DHT22;7150;53.514;9.988;2023-07-16T13:30:07;25.00;81.50
14140;DHT22;7150;53.514;9.988;2023-07-16T13:32:33;24.90;81.00
14140;DHT22;7150;53.514;9.988;2023-07-16T13:34:58;24.80;81.10
14140;DHT22;7150;53.514;9.988;2023-07-16T13:37:24;24.70;81.90
14140;DHT22;7150;53.514;9.988;2023-07-16T13:39:49;24.60;81.50
14140;DHT22;7150;53.514;9.988;2023-07-16T13:42:15;24.60;82.20
14140;DHT22;7150;53.514;9.988;2023-07-16T13:44:40;24.60;84.00
14140;DHT22;7150;53.514;9.988;2023-07-16T13:47:06;24.60;81.60
14140;DHT22;7150;53.514;9.988;2023-07-16T13:49:31;24.60;85.40
14140;DHT22;7150;53.514;9.988;2023-07-16T13:51:57;24.70;83.00
14140;DHT22;7150;53.514;9.988;2023-07-16T13:54:23;24.80;85.10
14140;DHT22;7150;53.514;9.988;2023-07-16T13:56:48;24.90;85.00
14140;DHT22;7150;53.514;9.988;2023-07-16T13:59:14;25.10;86.00
14140;DHT22;7150;53.514;9.988;2023-07-16T14:01:40;25.00;82.20
14140;DHT22;7150;53.514;9.988;2023-07-16T14:04:06;25.00;84.50
14140;DHT22;7150;53.514;9.988;2023-07-16T14:06:35;25.00;82.70
14140;DHT22;7150;53.514;9.988;2023-07-16T14:09:01;25.00;82.00
14140;DHT22;7150;53.514;9.988;2023-07-16T14:11:27;24.80;81.10
14140;DHT22;7150;53.514;9.988;2023-07-16T14:13:53;24.60;82.10
14140;DHT22;7150;53.514;9.988;2023-07-16T14:16:19;24.50;82.00
14140;DHT22;7150;53.514;9.988;2023-07-16T14:18:45;24.50;82.80
14140;DHT22;7150;53.514;9.988;2023-07-16T14:21:10;24.50;84.10
14140;DHT22;7150;53.514;9.988;2023-07-16T14:23:36;24.60;84.90
14140;DHT22;7150;53.514;9.988;2023-07-16T14:26:02;24.60;84.70
14140;DHT22;7150;53.514;9.988;2023-07-16T14:28:28;24.70;85.10
14140;DHT22;7150;53.514;9.988;2023-07-16T14:30:53;24.70;84.30
14140;DHT22;7150;53.514;9.988;2023-07-16T14:33:19;24.60;82.90
14140;DHT22;7150;53.514;9.988;2023-07-16T14:35:44;24.60;83.40
14140;DHT22;7150;53.514;9.988;2023-07-16T14:38:10;24.60;83.30
14140;DHT22;7150;53.514;9.988;2023-07-16T14:40:36;24.50;83.40
14140;DHT22;7150;53.514;9.988;2023-07-16T14:43:03;24.50;82.50
14140;DHT22;7150;53.514;9.988;2023-07-16T14:45:29;24.50;83.20
14140;DHT22;7150;53.514;9.988;2023-07-16T14:47:54;24.50;84.20
14140;DHT22;7150;53.514;9.988;2023-07-16T14:50:20;24.50;83.50
14140;DHT22;7150;53.514;9.988;2023-07-16T14:52:45;24.50;83.20
14140;DHT22;7150;53.514;9.988;2023-07-16T14:55:11;24.60;83.20
14140;DHT22;7150;53.514;9.988;2023-07-16T14:57:36;24.70;83.30
14140;DHT22;7150;53.514;9.988;2023-07-16T15:00:02;24.80;83.50
14140;DHT22;7150;53.514;9.988;2023-07-16T15:02:29;25.20;83.20
14140;DHT22;7150;53.514;9.988;2023-07-16T15:04:55;25.50;81.40
14140;DHT22;7150;53.514;9.988;2023-07-16T15:07:20;26.10;81.20
14140;DHT22;7150;53.514;9.988;2023-07-16T15:09:46;27.10;79.70
14140;DHT22;7150;53.514;9.988;2023-07-16T15:12:11;28.20;77.40
14140;DHT22;7150;53.514;9.988;2023-07-16T15:14:36;29.20;74.00
14140;DHT22;7150;53.514;9.988;2023-07-16T15:17:04;29.20;72.60
14140;DHT22;7150;53.514;9.988;2023-07-16T15:19:29;29.10;73.50
14140;DHT22;7150;53.514;9.988;2023-07-16T15:21:55;28.70;73.90
14140;DHT22;7150;53.514;9.988;2023-07-16T15:24:20;28.00;73.10
14140;DHT22;7150;53.514;9.988;2023-07-16T15:26:46;27.40;74.80
14140;DHT22;7150;53.514;9.988;2023-07-16T15:29:11;27.10;75.80
14140;DHT22;7150;53.514;9.988;2023-07-16T15:31:37;26.70;76.40
14140;DHT22;7150;53.514;9.988;2023-07-16T15:34:02;26.40;77.30
14140;DHT22;7150;53.514;9.988;2023-07-16T15:36:28;26.40;79.10
14140;DHT22;7150;53.514;9.988;2023-07-16T15:38:53;26.40;78.00
14140;DHT22;7150;53.514;9.988;2023-07-16T15:41:19;27.00;78.20
14140;DHT22;7150;53.514;9.988;2023-07-16T15:43:46;28.10;76.30
14140;DHT22;7150;53.514;9.988;2023-07-16T15:46:15;28.80;77.30
14140;DHT22;7150;53.514;9.988;2023-07-16T15:48:41;28.80;73.30